Time;durP1;ratioP1;P1;durP2;ratioP2;P2;SDS_P1;SDS_P2;PMS_P1;PMS_P2;Temp;Humidity;BMP_temperature;BMP_pressure;BME280_temperature;BME280_humidity;BME280_pressure;Samples;Min_cycle;Max_cycle;Signal;HPM_P1;HPM_P2
2023/05/22 00:01:55;;;;;;;5.30;2.63;;;;;;;19.21;47.27;101071.75;4968384;28;20058;-58
2023/05/22 00:04:23;;;;;;;7.50;3.00;;;;;;;19.21;47.17;101081.59;4984710;28;20393;-57
2023/05/22 00:06:50;;;;;;;7.22;3.50;;;;;;;19.18;47.13;101081.84;4968563;28;20093;-55
2023/05/22 00:09:17;;;;;;;8.63;3.13;;;;;;;19.16;47.26;101079.31;4967693;28;20058;-57
2023/05/22 00:11:44;;;;;;;6.28;3.38;;;;;;;19.15;47.20;101077.66;4970342;28;20065;-55
2023/05/22 00:14:15;;;;;;;10.27;3.30;;;;;;;19.14;47.30;101081.31;4968822;28;20518;-52
2023/05/22 00:16:42;;;;;;;6.60;3.15;;;;;;;19.12;47.29;101075.22;4970826;28;20077;-56
2023/05/22 00:19:12;;;;;;;10.13;3.08;;;;;;;19.10;47.33;101074.53;4968806;28;20059;-55
2023/05/22 00:21:39;;;;;;;4.95;3.33;;;;;;;19.08;47.39;101070.31;4965996;28;20055;-55
2023/05/22 00:24:07;;;;;;;6.28;3.05;;;;;;;19.06;47.33;101078.44;4966379;28;20077;-58
2023/05/22 00:26:34;;;;;;;9.07;3.67;;;;;;;19.03;47.21;101077.88;4967226;28;20047;-57
2023/05/22 00:29:02;;;;;;;5.65;3.08;;;;;;;19.02;47.50;101063.69;4972546;28;20062;-57
2023/05/22 00:31:29;;;;;;;6.07;3.35;;;;;;;18.99;47.50;101066.59;4968833;28;20054;-54
2023/05/22 00:33:57;;;;;;;7.10;3.10;;;;;;;18.99;47.57;101058.59;4985798;28;20066;-57
2023/05/22 00:36:25;;;;;;;6.22;3.22;;;;;;;18.96;47.47;101066.91;4966826;28;20066;-58
2023/05/22 00:38:52;;;;;;;4.20;3.00;;;;;;;18.92;47.56;101057.47;4966949;28;20136;-59
2023/05/22 00:41:21;;;;;;;5.22;3.40;;;;;;;18.88;47.66;101061.38;4981984;28;20054;-57
2023/05/22 00:43:49;;;;;;;7.10;3.03;;;;;;;18.84;47.65;101057.28;4971578;28;20553;-56
2023/05/22 00:46:20;;;;;;;10.73;3.85;;;;;;;18.79;47.63;101054.19;4968993;28;20054;-58
2023/05/22 00:48:48;;;;;;;7.57;3.15;;;;;;;18.77;47.74;101058.78;4969809;28;20054;-55
2023/05/22 00:51:15;;;;;;;8.50;3.08;;;;;;;18.72;47.94;101054.69;4966594;28;20056;-56
2023/05/22 00:53:43;;;;;;;4.30;2.95;;;;;;;18.69;47.93;101049.63;4970426;28;20050;-57
2023/05/22 00:56:11;;;;;;;4.85;3.10;;;;;;;18.65;48.01;101050.00;4968156;28;20137;-57
2023/05/22 00:58:38;;;;;;;4.35;3.15;;;;;;;18.66;48.05;101057.03;4970691;28;20074;-54
2023/05/22 01:01:08;;;;;;;4.20;3.60;;;;;;;18.62;48.04;101047.59;4972237;28;20054;-57
2023/05/22 01:03:45;;;;;;;4.15;2.97;;;;;;;18.58;47.83;101048.84;4966966;28;20137;-56
2023/05/22 01:06:13;;;;;;;8.52;3.38;;;;;;;18.55;48.07;101057.09;4969072;28;20913;-57
2023/05/22 01:08:41;;;;;;;5.25;2.90;;;;;;;18.53;47.99;101048.38;4967707;28;20053;-56
2023/05/22 01:11:23;;;;;;;7.85;2.90;;;;;;;18.47;48.04;101047.09;4981502;28;20046;-58
2023/05/22 01:13:59;;;;;;;5.55;3.03;;;;;;;18.43;48.33;101046.50;4970005;28;20050;-56
2023/05/22 01:16:45;;;;;;;6.88;3.30;;;;;;;18.38;48.23;101048.72;4959201;28;20051;-58
2023/05/22 01:19:46;;;;;;;4.95;2.60;;;;;;;18.31;48.39;101044.03;4967312;28;20073;-56
2023/05/22 01:23:01;;;;;;;6.47;3.35;;;;;;;18.25;48.60;101041.91;4965444;28;20057;-58
2023/05/22 01:25:44;;;;;;;4.50;3.15;;;;;;;18.19;48.86;101038.78;4960856;28;20047;-55
2023/05/22 01:28:44;;;;;;;5.65;2.85;;;;;;;18.12;48.67;101040.25;4967262;28;20490;-57
2023/05/22 01:31:17;;;;;;;5.28;3.13;;;;;;;18.10;48.81;101036.03;4963242;28;20047;-59
2023/05/22 01:33:50;;;;;;;5.30;3.13;;;;;;;18.08;48.91;101032.66;4958909;28;20057;-54
2023/05/22 01:36:21;;;;;;;6.13;2.97;;;;;;;18.03;48.70;101035.72;4962903;28;20042;-56
2023/05/22 01:38:51;;;;;;;4.03;3.03;;;;;;;18.00;48.90;101037.78;4983731;28;20586;-59
2023/05/22 01:41:20;;;;;;;7.20;3.05;;;;;;;17.97;49.04;101030.91;4967174;28;20047;-58
2023/05/22 01:43:47;;;;;;;4.50;3.08;;;;;;;17.94;49.02;101032.00;4966618;28;20056;-57
2023/05/22 01:46:14;;;;;;;8.13;3.10;;;;;;;17.91;49.04;101036.72;4967142;28;20058;-56
2023/05/22 01:48:42;;;;;;;5.50;3.20;;;;;;;17.87;49.02;101024.63;4963605;28;20054;-57
2023/05/22 01:51:22;;;;;;;5.82;2.80;;;;;;;17.81;49.15;101031.31;4962977;28;20134;-57
2023/05/22 01:54:04;;;;;;;7.38;3.60;;;;;;;17.79;49.20;101035.09;4963997;28;20069;-57
2023/05/22 01:56:39;;;;;;;4.43;2.90;;;;;;;17.74;49.27;101030.13;4977069;28;20050;-54
2023/05/22 01:59:12;;;;;;;7.93;3.27;;;;;;;17.72;49.41;101042.69;4972533;28;20375;-53
2023/05/22 02:01:40;;;;;;;4.72;3.30;;;;;;;17.67;49.51;101039.56;4965479;28;20062;-55
2023/05/22 02:04:09;;;;;;;8.52;3.60;;;;;;;17.63;49.75;101041.63;4964291;28;20055;-55
2023/05/22 02:06:37;;;;;;;4.35;2.92;;;;;;;17.60;49.91;101035.72;4963225;28;20059;-58
2023/05/22 02:09:05;;;;;;;5.20;2.67;;;;;;;17.55;50.00;101036.09;4973604;28;20069;-57
2023/05/22 02:11:33;;;;;;;5.43;3.63;;;;;;;17.51;50.21;101036.47;4966391;28;20055;-56
2023/05/22 02:14:01;;;;;;;6.82;3.10;;;;;;;17.48;50.22;101031.41;4963713;28;20082;-55
2023/05/22 02:16:29;;;;;;;5.82;3.03;;;;;;;17.45;50.23;101024.50;4967033;28;20059;-55
2023/05/22 02:19:04;;;;;;;4.90;3.10;;;;;;;17.41;50.40;101031.88;4967175;28;20058;-53
2023/05/22 02:21:35;;;;;;;6.50;2.80;;;;;;;17.37;50.50;101034.91;4963821;28;20384;-56
2023/05/22 02:24:02;;;;;;;6.50;3.08;;;;;;;17.33;50.48;101030.81;4961663;28;20047;-54
2023/05/22 02:26:29;;;;;;;4.60;3.38;;;;;;;17.32;50.58;101035.28;4965800;28;20064;-56
2023/05/22 02:28:57;;;;;;;6.20;3.20;;;;;;;17.30;50.76;101031.09;4965963;28;20055;-55
2023/05/22 02:31:25;;;;;;;5.72;3.60;;;;;;;17.26;50.74;101034.97;4966825;28;20141;-58
2023/05/22 02:33:52;;;;;;;4.88;3.17;;;;;;;17.23;50.71;101033.38;4962714;28;20133;-56
2023/05/22 02:36:19;;;;;;;4.75;3.65;;;;;;;17.21;50.78;101040.66;4974154;28;20418;-59
2023/05/22 02:38:47;;;;;;;7.15;3.92;;;;;;;17.16;50.79;101035.69;4972133;28;20704;-56
2023/05/22 02:41:14;;;;;;;3.72;3.20;;;;;;;17.15;50.82;101030.47;4962253;28;20055;-56
2023/05/22 02:43:41;;;;;;;5.93;3.30;;;;;;;17.11;50.77;101035.22;4964838;28;20184;-56
2023/05/22 02:46:09;;;;;;;9.85;3.83;;;;;;;17.09;51.05;101029.16;4969829;28;20047;-59
2023/05/22 02:48:36;;;;;;;6.15;3.45;;;;;;;17.06;51.20;101040.03;4970458;28;20073;-57
2023/05/22 02:51:03;;;;;;;9.10;3.80;;;;;;;17.05;51.20;101032.19;4966932;28;20051;-57
2023/05/22 02:53:32;;;;;;;6.30;3.30;;;;;;;17.04;51.27;101033.16;4967957;28;20051;-56
2023/05/22 02:55:59;;;;;;;5.50;3.15;;;;;;;17.02;51.43;101032.41;4963831;28;20051;-57
2023/05/22 02:58:27;;;;;;;5.30;3.05;;;;;;;17.01;51.41;101025.41;4966515;28;20047;-56
2023/05/22 03:00:54;;;;;;;5.28;3.25;;;;;;;16.99;51.46;101032.69;4969743;28;21009;-57
2023/05/22 03:03:23;;;;;;;5.10;3.33;;;;;;;16.97;51.63;101027.47;4960626;28;20046;-57
2023/05/22 03:05:57;;;;;;;5.07;2.78;;;;;;;16.97;51.69;101024.81;4969073;28;20480;-58
2023/05/22 03:08:26;;;;;;;5.65;3.20;;;;;;;16.93;51.67;101024.22;4964808;28;20142;-55
2023/05/22 03:10:58;;;;;;;7.00;3.60;;;;;;;16.91;52.07;101028.81;4962495;28;20061;-53
2023/05/22 03:13:25;;;;;;;7.78;3.60;;;;;;;16.89;52.20;101019.28;4964762;28;20051;-54
2023/05/22 03:15:52;;;;;;;4.18;2.92;;;;;;;16.87;51.97;101018.53;4968434;28;20480;-55
2023/05/22 03:18:20;;;;;;;3.67;2.90;;;;;;;16.86;52.19;101017.69;4970133;28;20107;-58
2023/05/22 03:20:48;;;;;;;6.68;3.25;;;;;;;16.84;52.35;101011.66;4968939;28;21437;-59
2023/05/22 03:23:15;;;;;;;5.32;3.25;;;;;;;16.82;52.36;101005.59;4964920;28;20423;-58
2023/05/22 03:25:42;;;;;;;9.05;3.83;;;;;;;16.82;52.49;101004.75;4963215;28;20094;-58
2023/05/22 03:28:10;;;;;;;4.90;3.05;;;;;;;16.81;52.59;101003.06;4968453;28;20055;-54
2023/05/22 03:30:37;;;;;;;5.80;3.38;;;;;;;16.81;52.73;101003.06;4966199;28;20050;-58
2023/05/22 03:33:04;;;;;;;6.22;3.90;;;;;;;16.80;52.69;101004.06;4969873;28;20419;-56
2023/05/22 03:35:32;;;;;;;8.98;3.80;;;;;;;16.81;52.67;101003.91;4970079;28;20436;-61
2023/05/22 03:37:59;;;;;;;5.60;3.22;;;;;;;16.81;52.92;101006.59;4971038;28;20137;-58
2023/05/22 03:40:26;;;;;;;6.57;3.42;;;;;;;16.81;52.92;101003.91;4964930;28;20066;-58
2023/05/22 03:42:53;;;;;;;6.93;3.25;;;;;;;16.81;52.82;101003.91;4968910;28;20055;-55
2023/05/22 03:45:20;;;;;;;5.38;3.63;;;;;;;16.83;52.94;101007.28;4968295;28;20062;-59
2023/05/22 03:47:47;;;;;;;5.47;3.55;;;;;;;16.83;53.05;101009.94;4972841;28;20548;-57
2023/05/22 03:50:15;;;;;;;6.18;3.28;;;;;;;16.86;52.70;101006.22;4967859;28;20051;-56
2023/05/22 03:52:42;;;;;;;6.97;3.13;;;;;;;16.87;53.11;101005.25;4965485;28;20047;-58
2023/05/22 03:55:09;;;;;;;5.70;3.70;;;;;;;16.86;53.10;101001.75;4966584;28;20061;-55
2023/05/22 03:57:36;;;;;;;5.82;3.75;;;;;;;16.87;53.07;101011.41;4970486;28;20165;-55
2023/05/22 04:00:11;;;;;;;8.25;3.50;;;;;;;16.89;52.84;101011.31;4969319;28;20633;-56
2023/05/22 04:02:38;;;;;;;5.22;3.45;;;;;;;16.91;52.83;101007.53;4967802;28;20073;-57
2023/05/22 04:05:08;;;;;;;8.43;3.78;;;;;;;16.94;53.03;101007.31;4965537;28;20543;-58
2023/05/22 04:07:35;;;;;;;5.45;4.03;;;;;;;16.94;53.26;100998.47;4967446;28;20053;-54
2023/05/22 04:10:04;;;;;;;5.53;3.88;;;;;;;16.96;53.08;100999.19;4962786;28;20058;-57
2023/05/22 04:12:31;;;;;;;9.60;3.33;;;;;;;16.98;53.21;100999.09;4967839;28;20073;-54
2023/05/22 04:14:58;;;;;;;6.70;3.25;;;;;;;17.01;53.22;100993.50;4969707;28;20062;-55
2023/05/22 04:17:31;;;;;;;7.28;4.15;;;;;;;17.04;53.60;100996.78;4966792;28;20057;-54
2023/05/22 04:19:59;;;;;;;6.60;3.28;;;;;;;17.05;53.43;101001.13;4975444;28;20051;-53
2023/05/22 04:22:26;;;;;;;6.18;3.88;;;;;;;17.11;53.51;100999.78;4961581;28;20090;-56
2023/05/22 04:24:53;;;;;;;4.93;3.85;;;;;;;17.16;53.61;101001.09;4963401;28;20631;-56
2023/05/22 04:27:21;;;;;;;7.45;3.42;;;;;;;17.21;53.63;101001.59;4963203;28;20039;-57
2023/05/22 04:29:49;;;;;;;7.18;3.75;;;;;;;17.25;53.60;100996.03;4962436;28;20169;-57
2023/05/22 04:32:17;;;;;;;10.63;4.47;;;;;;;17.32;53.90;100998.03;4963449;28;20065;-55
2023/05/22 04:34:46;;;;;;;6.63;3.80;;;;;;;17.39;53.46;100996.59;4966655;28;20047;-55
2023/05/22 04:37:14;;;;;;;12.93;3.38;;;;;;;17.48;53.55;101002.97;4964393;28;20058;-56
2023/05/22 04:39:42;;;;;;;9.00;4.35;;;;;;;17.57;53.27;100999.56;4966522;28;20137;-56
2023/05/22 04:42:09;;;;;;;10.02;4.18;;;;;;;17.61;53.15;100995.66;4967518;28;20073;-56
2023/05/22 04:44:37;;;;;;;8.45;3.97;;;;;;;17.65;53.13;100997.09;4972911;28;20065;-58
2023/05/22 04:47:06;;;;;;;8.70;4.20;;;;;;;17.72;52.96;100998.28;4965882;28;20043;-55
2023/05/22 04:49:34;;;;;;;8.95;3.90;;;;;;;17.80;52.80;101000.34;4961208;28;20050;-54
2023/05/22 04:52:03;;;;;;;12.30;4.05;;;;;;;17.86;52.69;101006.97;4962345;28;20051;-57
2023/05/22 04:54:30;;;;;;;10.00;3.80;;;;;;;17.94;52.47;101007.19;4952945;28;20053;-57
2023/05/22 04:56:58;;;;;;;7.68;3.65;;;;;;;17.98;52.51;101002.44;4964206;28;20057;-57
2023/05/22 04:59:25;;;;;;;10.13;3.83;;;;;;;18.01;52.57;101002.16;4968083;28;20060;-57
2023/05/22 05:01:52;;;;;;;7.32;3.70;;;;;;;18.02;52.64;101003.88;4970671;28;20063;-54
2023/05/22 05:04:19;;;;;;;8.85;4.10;;;;;;;18.07;52.44;101002.50;4959358;28;20054;-58
2023/05/22 05:06:46;;;;;;;9.38;3.80;;;;;;;18.12;52.17;100994.97;4959198;28;20487;-57
2023/05/22 05:09:14;;;;;;;8.93;4.25;;;;;;;18.16;51.92;100992.88;4961078;28;20059;-58
2023/05/22 05:11:41;;;;;;;9.40;3.38;;;;;;;18.16;52.23;100999.06;4963451;28;21759;-57
2023/05/22 05:14:08;;;;;;;11.60;3.70;;;;;;;18.18;51.91;100994.44;4966680;28;20427;-56
2023/05/22 05:16:35;;;;;;;6.63;4.05;;;;;;;18.17;52.15;100992.75;4961519;28;20507;-54
2023/05/22 05:19:02;;;;;;;6.35;3.50;;;;;;;18.16;52.38;101003.56;4964310;28;20105;-55
2023/05/22 05:21:30;;;;;;;14.40;4.88;;;;;;;18.15;52.89;100991.22;4957021;28;20090;-55
2023/05/22 05:23:57;;;;;;;6.85;3.90;;;;;;;18.19;52.37;100989.94;4957296;28;20580;-57
2023/05/22 05:26:25;;;;;;;6.43;3.67;;;;;;;18.20;52.32;100999.66;4963172;28;20148;-55
2023/05/22 05:28:53;;;;;;;7.88;3.83;;;;;;;18.18;52.46;100999.75;4951532;28;20059;-54
2023/05/22 05:31:20;;;;;;;5.07;3.60;;;;;;;18.20;52.67;101000.50;4964933;28;20419;-58
2023/05/22 05:33:48;;;;;;;9.70;4.68;;;;;;;18.25;52.83;101007.25;4965690;28;20055;-55
2023/05/22 05:36:15;;;;;;;8.65;4.18;;;;;;;18.21;52.82;101004.84;4965261;28;20395;-55
2023/05/22 05:38:43;;;;;;;8.70;4.15;;;;;;;18.19;53.16;101008.59;4960721;28;20058;-55
2023/05/22 05:41:10;;;;;;;8.45;3.92;;;;;;;18.17;52.86;101011.41;4963878;28;20069;-56
2023/05/22 05:43:37;;;;;;;10.05;3.95;;;;;;;18.21;52.94;101017.31;4964218;28;20068;-58
2023/05/22 05:46:04;;;;;;;11.80;3.25;;;;;;;18.27;53.01;101018.63;4962417;28;20050;-54
2023/05/22 05:48:32;;;;;;;9.50;4.25;;;;;;;18.34;52.96;101017.13;4963362;28;20043;-55
2023/05/22 05:50:59;;;;;;;13.27;4.45;;;;;;;18.44;52.66;101005.53;4966218;28;20054;-55
2023/05/22 05:53:27;;;;;;;9.52;4.30;;;;;;;18.59;52.41;101015.84;4962809;28;20051;-55
2023/05/22 05:55:54;;;;;;;8.90;4.35;;;;;;;18.76;52.43;101017.09;4963957;28;20050;-54
2023/05/22 05:58:21;;;;;;;5.22;3.80;;;;;;;18.89;52.07;101009.72;4966274;28;20108;-57
2023/05/22 06:00:48;;;;;;;10.10;4.70;;;;;;;19.03;52.09;101014.66;4967981;28;20058;-55
2023/05/22 06:03:16;;;;;;;12.50;3.70;;;;;;;19.14;51.29;101017.25;4968166;28;20043;-57
2023/05/22 06:05:48;;;;;;;7.03;3.80;;;;;;;19.26;51.02;101017.97;4965016;28;20042;-57
2023/05/22 06:08:15;;;;;;;8.38;4.72;;;;;;;19.38;50.77;101022.22;4964003;28;20122;-58
2023/05/22 06:10:43;;;;;;;8.07;4.18;;;;;;;19.51;50.56;101015.78;4964652;28;20093;-56
2023/05/22 06:13:10;;;;;;;6.72;4.00;;;;;;;19.53;50.46;101016.47;4965423;28;20058;-55
2023/05/22 06:15:37;;;;;;;7.63;4.30;;;;;;;19.55;50.26;101012.69;4965312;28;20081;-53
2023/05/22 06:18:05;;;;;;;11.27;4.15;;;;;;;19.63;50.38;101015.53;4968591;28;20049;-54
2023/05/22 06:20:32;;;;;;;7.60;3.97;;;;;;;19.67;50.19;101008.06;4967769;28;20046;-53
2023/05/22 06:22:59;;;;;;;8.45;4.07;;;;;;;19.73;50.14;101004.84;4963729;28;20153;-53
2023/05/22 06:25:28;;;;;;;10.18;4.25;;;;;;;19.83;49.87;101005.69;4965621;28;20053;-51
2023/05/22 06:27:55;;;;;;;10.88;3.80;;;;;;;19.95;49.67;101011.75;4964570;28;20058;-55
2023/05/22 06:30:23;;;;;;;11.05;3.97;;;;;;;20.04;49.68;101005.56;4966190;28;20057;-54
2023/05/22 06:33:09;;;;;;;7.43;3.95;;;;;;;20.14;49.73;101011.72;4967510;28;20408;-55
2023/05/22 06:35:37;;;;;;;15.82;4.10;;;;;;;20.26;49.78;101000.84;4966501;28;20492;-55
2023/05/22 06:38:04;;;;;;;5.43;3.92;;;;;;;20.39;49.46;101004.06;4963124;28;20078;-56
2023/05/22 06:40:31;;;;;;;9.60;4.25;;;;;;;20.46;49.04;101002.50;4965123;28;20528;-55
2023/05/22 06:42:58;;;;;;;10.60;4.07;;;;;;;20.57;48.76;101013.03;4966960;28;20059;-56
2023/05/22 06:45:25;;;;;;;11.13;3.72;;;;;;;20.66;48.94;101011.34;4967164;28;20051;-55
2023/05/22 06:47:53;;;;;;;6.28;4.25;;;;;;;20.79;48.85;101014.53;4966714;28;20655;-53
2023/05/22 06:50:21;;;;;;;7.20;4.10;;;;;;;20.91;48.72;101008.00;4965812;28;20054;-50
2023/05/22 06:52:48;;;;;;;8.48;4.35;;;;;;;20.99;48.19;101010.78;4963417;28;20054;-58
2023/05/22 06:55:15;;;;;;;9.70;4.47;;;;;;;21.06;48.10;100997.63;4954095;28;20135;-62
2023/05/22 06:57:42;;;;;;;10.60;4.70;;;;;;;21.18;48.38;100999.13;4965328;28;20181;-58
2023/05/22 07:00:11;;;;;;;8.93;4.53;;;;;;;21.29;47.72;101006.09;4965508;28;20077;-56
2023/05/22 07:02:38;;;;;;;5.53;3.97;;;;;;;21.41;47.61;101001.41;4967997;28;20046;-54
2023/05/22 07:05:06;;;;;;;11.38;4.07;;;;;;;21.52;47.32;100997.66;4967356;28;20072;-56
2023/05/22 07:07:34;;;;;;;4.85;3.67;;;;;;;21.69;47.34;100999.50;4965614;28;20065;-57
2023/05/22 07:10:02;;;;;;;8.65;4.13;;;;;;;21.73;47.45;100999.03;4963756;28;20058;-57
2023/05/22 07:12:29;;;;;;;10.43;4.25;;;;;;;21.76;47.16;100997.91;4961451;28;20065;-56
2023/05/22 07:14:58;;;;;;;8.40;4.13;;;;;;;21.81;46.85;100995.59;4965314;28;20522;-57
2023/05/22 07:17:26;;;;;;;7.75;4.10;;;;;;;21.90;46.59;100992.00;4965811;28;20057;-57
2023/05/22 07:19:53;;;;;;;11.57;4.20;;;;;;;22.03;46.90;100996.94;4964037;28;20153;-56
2023/05/22 07:25:13;;;;;;;10.25;4.20;;;;;;;22.34;46.54;100999.22;4967341;28;20043;-56
2023/05/22 07:27:40;;;;;;;11.30;4.60;;;;;;;22.50;46.22;100999.31;4968240;28;20047;-55
2023/05/22 07:30:07;;;;;;;7.10;4.07;;;;;;;22.53;46.18;101000.84;4967420;28;20065;-52
2023/05/22 07:32:35;;;;;;;34.63;9.75;;;;;;;22.49;45.79;101003.00;4971551;28;20140;-55
2023/05/22 07:35:02;;;;;;;53.45;14.80;;;;;;;22.47;46.01;101000.47;4971754;28;20427;-58
2023/05/22 07:37:30;;;;;;;40.20;10.95;;;;;;;22.58;45.89;100996.66;4969080;28;20641;-55
2023/05/22 07:39:57;;;;;;;32.55;10.40;;;;;;;22.74;45.54;100990.56;4967910;28;20051;-56
2023/05/22 07:42:26;;;;;;;30.80;9.68;;;;;;;22.90;45.63;100989.81;4968024;28;20062;-59
2023/05/22 07:44:53;;;;;;;46.00;13.82;;;;;;;23.01;45.33;100989.53;4968926;28;20057;-57
2023/05/22 07:47:20;;;;;;;25.50;8.75;;;;;;;23.08;45.05;100987.03;4970259;28;20074;-57
2023/05/22 07:49:47;;;;;;;14.13;5.18;;;;;;;23.21;44.96;100990.91;4971092;28;20472;-54
2023/05/22 07:52:14;;;;;;;17.88;6.28;;;;;;;23.27;44.42;100986.72;4966795;28;20047;-55
2023/05/22 07:54:42;;;;;;;15.00;5.22;;;;;;;23.36;44.44;100979.53;4968085;28;20066;-57
2023/05/22 07:57:11;;;;;;;11.13;4.88;;;;;;;23.53;43.80;100992.00;4968176;28;20061;-55
2023/05/22 07:59:39;;;;;;;7.40;3.63;;;;;;;23.68;43.87;100994.88;4967322;28;20154;-58
2023/05/22 08:02:08;;;;;;;9.95;4.60;;;;;;;23.88;43.64;100993.56;4966888;28;20054;-54
2023/05/22 08:04:36;;;;;;;12.25;5.13;;;;;;;23.98;42.97;101001.47;4970310;28;20059;-58
2023/05/22 08:07:03;;;;;;;9.40;4.15;;;;;;;24.10;42.51;100999.28;4968118;28;20186;-52
2023/05/22 08:09:30;;;;;;;8.63;4.40;;;;;;;24.13;42.32;100999.75;4967910;28;20049;-53
2023/05/22 08:11:58;;;;;;;12.30;5.63;;;;;;;24.23;42.21;100992.38;4965393;28;20054;-59
2023/05/22 08:14:25;;;;;;;15.63;5.65;;;;;;;24.37;42.43;100995.41;4968000;28;20650;-56
2023/05/22 08:16:53;;;;;;;10.68;4.68;;;;;;;24.48;41.77;100997.72;4968787;28;20047;-56
2023/05/22 08:19:21;;;;;;;7.65;3.80;;;;;;;24.53;41.55;100997.22;4971891;28;20053;-55
2023/05/22 08:21:48;;;;;;;12.07;5.28;;;;;;;24.59;41.32;100992.00;4956793;28;20065;-56
2023/05/22 08:24:15;;;;;;;10.93;5.05;;;;;;;24.66;41.04;100990.28;4964812;28;20054;-56
2023/05/22 08:26:42;;;;;;;17.08;7.40;;;;;;;24.84;40.79;100991.91;4968264;28;20641;-58
2023/05/22 08:29:10;;;;;;;10.77;4.13;;;;;;;24.97;40.76;100992.19;4969640;28;20047;-58
2023/05/22 08:31:37;;;;;;;11.35;4.13;;;;;;;25.11;40.32;100983.38;4968208;28;20059;-56
2023/05/22 08:34:06;;;;;;;6.10;3.65;;;;;;;25.26;40.32;100978.06;4970888;28;20066;-58
2023/05/22 08:36:33;;;;;;;7.93;3.85;;;;;;;25.31;40.03;100980.22;4966889;28;20601;-56
2023/05/22 08:39:00;;;;;;;7.13;3.78;;;;;;;25.28;39.67;100977.91;4965722;28;20146;-53
2023/05/22 08:41:28;;;;;;;7.82;4.22;;;;;;;25.22;39.95;100974.91;4966659;28;20065;-55
2023/05/22 08:43:55;;;;;;;10.30;4.45;;;;;;;25.18;39.93;100973.59;4966459;28;20059;-55
2023/05/22 08:46:27;;;;;;;13.57;4.13;;;;;;;25.22;39.83;100972.22;4969344;28;20415;-55
2023/05/22 08:48:56;;;;;;;9.57;4.07;;;;;;;25.17;40.26;100969.22;4974496;28;20427;-56
2023/05/22 08:51:27;;;;;;;7.15;3.65;;;;;;;25.16;39.92;100969.38;4967987;28;20047;-57
2023/05/22 08:53:57;;;;;;;8.20;4.15;;;;;;;25.31;39.88;100973.00;4966937;28;20057;-54
2023/05/22 08:56:25;;;;;;;7.72;4.13;;;;;;;25.60;39.74;100963.38;4964956;28;20047;-56
2023/05/22 08:58:56;;;;;;;6.07;3.38;;;;;;;25.98;38.74;100967.81;4963786;28;20057;-57
2023/05/22 09:01:23;;;;;;;9.05;3.67;;;;;;;26.21;38.89;100962.34;4968334;28;20055;-55
2023/05/22 09:03:51;;;;;;;10.48;4.13;;;;;;;26.37;38.03;100958.63;4971610;28;20134;-56
2023/05/22 09:06:18;;;;;;;11.10;3.72;;;;;;;26.36;37.85;100959.66;4966997;28;20141;-57
2023/05/22 09:08:45;;;;;;;7.13;3.30;;;;;;;26.35;37.77;100954.44;4965476;28;20054;-57
2023/05/22 09:11:12;;;;;;;5.82;3.20;;;;;;;26.40;37.71;100954.72;4966211;28;20047;-54
2023/05/22 09:13:40;;;;;;;9.23;4.13;;;;;;;26.50;37.41;100953.44;4966804;28;20051;-55
2023/05/22 09:16:11;;;;;;;12.20;4.10;;;;;;;26.65;37.64;100950.72;4965318;28;20054;-56
2023/05/22 09:18:39;;;;;;;12.40;6.03;;;;;;;26.91;37.70;100958.34;4967761;28;20053;-55
2023/05/22 09:21:07;;;;;;;9.38;4.63;;;;;;;27.08;36.69;100950.03;4969509;28;20130;-57
2023/05/22 09:23:58;;;;;;;14.48;6.82;;;;;;;27.32;36.51;100946.97;4967491;28;20050;-57
2023/05/22 09:26:28;;;;;;;9.27;4.80;;;;;;;27.46;36.07;100946.06;4966091;28;20051;-55
2023/05/22 09:28:56;;;;;;;13.45;3.47;;;;;;;27.46;35.71;100945.25;4965400;28;20336;-58
2023/05/22 09:31:23;;;;;;;7.53;3.70;;;;;;;27.44;35.56;100941.91;4965809;28;20046;-55
2023/05/22 09:33:50;;;;;;;6.93;3.25;;;;;;;27.51;36.05;100940.09;4970057;28;20058;-57
2023/05/22 09:36:17;;;;;;;10.40;3.55;;;;;;;27.56;35.96;100939.50;4966725;28;20055;-55
2023/05/22 09:38:45;;;;;;;10.80;3.00;;;;;;;27.53;35.48;100940.75;4965763;28;20039;-57
2023/05/22 09:41:12;;;;;;;7.80;3.33;;;;;;;27.52;35.43;100942.63;4966158;28;20043;-53
2023/05/22 09:43:48;;;;;;;19.30;5.72;;;;;;;27.59;35.19;100931.84;4965824;28;20082;-57
2023/05/22 09:46:16;;;;;;;7.13;3.25;;;;;;;27.57;35.19;100935.78;4965773;28;20055;-55
2023/05/22 09:48:43;;;;;;;8.43;3.65;;;;;;;27.45;35.49;100935.47;4968167;28;20146;-52
2023/05/22 09:51:11;;;;;;;6.43;3.33;;;;;;;27.46;35.07;100937.13;4965741;28;20133;-58
2023/05/22 09:53:40;;;;;;;5.60;3.08;;;;;;;27.57;35.25;100933.91;4964004;28;20066;-55
2023/05/22 09:56:12;;;;;;;11.55;2.97;;;;;;;27.45;34.60;100927.34;4964339;28;20062;-58
2023/05/22 09:58:44;;;;;;;4.97;3.50;;;;;;;27.43;34.75;100932.97;4964713;28;20133;-54
2023/05/22 10:01:12;;;;;;;7.25;3.47;;;;;;;27.49;34.66;100934.03;4967207;28;20061;-55
2023/05/22 10:03:40;;;;;;;5.55;3.40;;;;;;;27.69;34.76;100929.66;4968313;28;20082;-58
2023/05/22 10:06:10;;;;;;;5.30;3.25;;;;;;;27.85;34.43;100925.84;4951384;28;20944;-58
2023/05/22 10:08:42;;;;;;;6.93;3.10;;;;;;;27.97;34.41;100920.75;4964825;28;20142;-56
2023/05/22 10:11:10;;;;;;;6.28;3.90;;;;;;;27.89;34.24;100927.13;4967023;28;20508;-57
2023/05/22 10:13:38;;;;;;;5.85;2.80;;;;;;;27.93;34.36;100933.00;4965394;28;20063;-57
2023/05/22 10:16:06;;;;;;;3.47;3.08;;;;;;;28.00;33.81;100925.75;4964573;28;20055;-56
2023/05/22 10:18:34;;;;;;;8.48;3.10;;;;;;;27.94;33.80;100927.38;4965387;28;20540;-57
2023/05/22 10:21:02;;;;;;;3.97;3.25;;;;;;;27.97;34.03;100927.00;4983075;28;20073;-55
2023/05/22 10:23:29;;;;;;;5.10;3.10;;;;;;;27.98;33.98;100919.72;4966200;28;20054;-58
2023/05/22 10:25:57;;;;;;;5.20;3.10;;;;;;;28.00;33.36;100921.16;4964632;28;20092;-57
2023/05/22 10:28:28;;;;;;;6.32;3.08;;;;;;;28.07;33.63;100915.81;4966858;28;20055;-55
2023/05/22 10:31:00;;;;;;;4.38;3.38;;;;;;;28.14;33.20;100924.81;4982346;28;20058;-56
2023/05/22 10:33:33;;;;;;;5.82;3.05;;;;;;;28.21;33.58;100916.75;4966948;28;20056;-56
2023/05/22 10:36:21;;;;;;;5.25;2.80;;;;;;;28.24;33.06;100908.22;4965438;28;20400;-58
2023/05/22 10:39:33;;;;;;;6.60;3.05;;;;;;;28.27;32.44;100905.94;4965171;28;20069;-58
2023/05/22 10:42:00;;;;;;;11.52;3.35;;;;;;;28.25;32.64;100909.91;4964025;28;20049;-58
2023/05/22 10:44:28;;;;;;;8.25;3.55;;;;;;;28.32;32.80;100899.91;4967558;28;20050;-56
2023/05/22 10:46:55;;;;;;;7.40;3.40;;;;;;;28.46;32.75;100900.84;4965882;28;20462;-55
2023/05/22 10:49:22;;;;;;;6.97;3.22;;;;;;;28.60;32.35;100894.47;4970848;28;20042;-58
2023/05/22 10:51:56;;;;;;;7.13;3.65;;;;;;;28.55;32.46;100887.97;4961489;28;20054;-58
2023/05/22 10:54:42;;;;;;;5.25;3.05;;;;;;;28.52;32.12;100889.22;4967148;28;20059;-56
2023/05/22 10:57:16;;;;;;;9.15;3.10;;;;;;;28.49;32.28;100886.91;4970066;28;20058;-58
2023/05/22 10:59:46;;;;;;;5.10;2.78;;;;;;;28.47;32.14;100887.13;4967055;28;20062;-58
2023/05/22 11:02:21;;;;;;;7.20;3.03;;;;;;;28.61;31.78;100882.59;4969424;28;20125;-58
2023/05/22 11:04:48;;;;;;;8.35;3.17;;;;;;;28.62;32.02;100875.31;4972282;28;20067;-58
2023/05/22 11:07:16;;;;;;;8.18;3.45;;;;;;;28.57;31.71;100880.50;4968496;28;20690;-55
2023/05/22 11:09:46;;;;;;;6.13;3.28;;;;;;;28.67;30.88;100865.53;4969064;28;20073;-57
2023/05/22 11:12:23;;;;;;;8.23;3.13;;;;;;;28.75;31.23;100861.81;4968896;28;20061;-58
2023/05/22 11:14:55;;;;;;;4.22;3.00;;;;;;;28.83;30.68;100867.06;4969433;28;20070;-58
2023/05/22 11:17:29;;;;;;;6.32;3.17;;;;;;;28.87;30.26;100862.06;4971434;28;20061;-57
2023/05/22 11:20:17;;;;;;;7.75;3.00;;;;;;;29.05;30.77;100859.63;4975758;28;20411;-56
2023/05/22 11:23:04;;;;;;;5.57;3.72;;;;;;;29.00;29.64;100862.97;4965915;28;20051;-57
2023/05/22 11:25:32;;;;;;;4.70;3.15;;;;;;;29.09;29.60;100862.75;4967620;28;20055;-58
2023/05/22 11:28:04;;;;;;;3.90;2.90;;;;;;;29.27;30.04;100855.69;4961536;28;20065;-56
2023/05/22 11:30:33;;;;;;;6.40;3.53;;;;;;;29.37;29.72;100857.16;4968218;28;20054;-57
2023/05/22 11:33:00;;;;;;;9.45;3.22;;;;;;;29.35;29.00;100859.22;4968027;28;20500;-56
2023/05/22 11:35:28;;;;;;;6.82;2.58;;;;;;;29.29;28.59;100860.91;4970648;28;20074;-57
2023/05/22 11:37:55;;;;;;;7.75;3.83;;;;;;;29.28;28.28;100856.53;4968207;28;20065;-53